Time;durP1;ratioP1;P1;durP2;ratioP2;P2;SDS_P1;SDS_P2;PMS_P1;PMS_P2;Temp;Humidity;BMP_temperature;BMP_pressure;BME280_temperature;BME280_humidity;BME280_pressure;Samples;Min_cycle;Max_cycle;Signal;HPM_P1;HPM_P2
2023/04/08 00:00:44;;;;;;;6.27;5.67;;;;;;;6.68;72.53;99163.88;5076062;28;40950;-78
2023/04/08 00:03:13;;;;;;;7.03;6.30;;;;;;;6.62;72.46;99152.75;5075888;28;42602;-77
2023/04/08 00:05:40;;;;;;;6.17;5.53;;;;;;;6.62;72.61;99160.66;5075657;28;41136;-78
2023/04/08 00:08:08;;;;;;;5.77;5.17;;;;;;;6.56;72.52;99158.25;5092696;28;38982;-78
2023/04/08 00:10:36;;;;;;;5.60;5.10;;;;;;;6.51;72.53;99163.75;5092749;28;41772;-77
2023/04/08 00:13:03;;;;;;;5.87;5.07;;;;;;;6.47;72.72;99175.28;5093874;28;42600;-77
2023/04/08 00:15:31;;;;;;;6.07;5.57;;;;;;;6.40;72.79;99155.44;5075006;28;41105;-78
2023/04/08 00:17:59;;;;;;;5.70;5.20;;;;;;;6.30;72.70;99156.72;5075994;28;38865;-77
2023/04/08 00:20:28;;;;;;;5.70;5.10;;;;;;;6.34;72.64;99184.59;5075695;28;40601;-78
2023/04/08 00:22:56;;;;;;;5.90;5.30;;;;;;;6.30;72.75;99177.78;5092502;28;42915;-78
2023/04/08 00:25:23;;;;;;;5.73;4.97;;;;;;;6.25;72.79;99184.97;5093299;28;43252;-78
2023/04/08 00:27:52;;;;;;;6.13;5.53;;;;;;;6.20;72.80;99192.19;5093684;28;41120;-77
2023/04/08 00:30:20;;;;;;;7.80;6.50;;;;;;;6.13;72.91;99187.19;5075504;28;40458;-77
2023/04/08 00:32:48;;;;;;;6.20;5.50;;;;;;;5.94;72.95;99161.66;5075534;28;41662;-78
2023/04/08 00:35:16;;;;;;;6.83;6.10;;;;;;;6.03;72.98;99185.81;5074807;28;41073;-77
2023/04/08 00:37:45;;;;;;;6.20;5.47;;;;;;;5.99;72.92;99183.38;5075647;28;39280;-78
2023/04/08 00:40:13;;;;;;;5.90;5.30;;;;;;;5.94;72.95;99186.16;5075101;28;41160;-77
2023/04/08 00:42:41;;;;;;;8.20;7.00;;;;;;;5.90;73.00;99188.97;5075759;28;41712;-77
2023/04/08 00:45:10;;;;;;;7.73;6.73;;;;;;;5.85;73.06;99183.00;5075060;28;41315;-78
2023/04/08 00:47:38;;;;;;;9.83;7.33;;;;;;;5.81;72.92;99178.81;5075173;28;39244;-77
2023/04/08 00:50:09;;;;;;;6.90;6.20;;;;;;;5.68;73.17;99170.53;5092783;28;41863;-77
2023/04/08 00:52:37;;;;;;;7.47;5.97;;;;;;;5.59;73.33;99168.22;5089227;28;43053;-77
2023/04/08 00:55:08;;;;;;;6.87;6.00;;;;;;;5.68;73.02;99184.50;5075370;28;41238;-77
2023/04/08 00:57:36;;;;;;;7.60;6.20;;;;;;;5.64;72.94;99187.31;5075693;28;38979;-77
2023/04/08 01:00:05;;;;;;;7.20;6.50;;;;;;;5.54;73.14;99183.31;5075134;28;41749;-77
2023/04/08 01:02:39;;;;;;;6.97;6.27;;;;;;;5.55;73.68;99190.28;5075016;28;41819;-77
2023/04/08 01:05:09;;;;;;;7.60;6.80;;;;;;;5.51;73.53;99196.56;5074843;28;40906;-77
2023/04/08 01:07:41;;;;;;;6.93;6.23;;;;;;;5.47;73.29;99185.28;5091019;28;41038;-77
2023/04/08 01:10:15;;;;;;;9.77;8.77;;;;;;;5.38;73.37;99183.88;5074636;28;40761;-78
2023/04/08 01:12:49;;;;;;;9.40;7.47;;;;;;;5.38;73.56;99188.25;5075239;28;41906;-77
2023/04/08 01:15:17;;;;;;;7.97;6.90;;;;;;;5.34;73.59;99184.00;5074129;28;42335;-77
2023/04/08 01:17:47;;;;;;;6.47;5.87;;;;;;;5.32;73.58;99186.69;5092160;28;41153;-77
2023/04/08 01:20:16;;;;;;;6.53;5.87;;;;;;;5.28;73.76;99190.38;5091797;28;42683;-77
2023/04/08 01:22:56;;;;;;;8.53;6.57;;;;;;;5.25;73.71;99190.47;5075063;28;42598;-77
2023/04/08 01:25:30;;;;;;;6.70;5.97;;;;;;;5.22;73.48;99195.81;5074899;28;42681;-77
2023/04/08 01:28:04;;;;;;;6.80;6.10;;;;;;;5.18;73.69;99188.97;5075140;28;39227;-77
2023/04/08 01:30:34;;;;;;;6.37;5.67;;;;;;;5.15;73.52;99190.84;5074434;28;42106;-78
2023/04/08 01:33:04;;;;;;;7.83;7.03;;;;;;;5.13;73.54;99192.66;5074508;28;41828;-77
2023/04/08 01:35:32;;;;;;;6.23;5.63;;;;;;;5.09;73.61;99194.53;5091364;28;42008;-78
2023/04/08 01:38:02;;;;;;;8.00;7.10;;;;;;;5.06;73.41;99189.41;5074701;28;39332;-77
2023/04/08 01:40:30;;;;;;;7.80;7.03;;;;;;;4.96;73.78;99167.84;5091010;28;41415;-77
2023/04/08 01:43:01;;;;;;;9.90;7.97;;;;;;;5.02;74.12;99186.03;5091551;28;42911;-77
2023/04/08 01:45:30;;;;;;;8.60;7.70;;;;;;;5.02;74.44;99179.94;5074675;28;40952;-77
2023/04/08 01:48:00;;;;;;;9.07;7.00;;;;;;;5.01;74.63;99175.59;5074619;28;38677;-77
2023/04/08 01:50:29;;;;;;;10.10;7.77;;;;;;;5.00;74.93;99179.13;5074177;28;40869;-77
2023/04/08 01:53:00;;;;;;;8.67;7.30;;;;;;;5.02;74.95;99178.16;5091078;28;43725;-78
2023/04/08 01:55:29;;;;;;;11.97;9.10;;;;;;;5.02;75.67;99169.41;5073878;28;42086;-78
2023/04/08 01:58:01;;;;;;;10.30;7.97;;;;;;;4.99;76.14;99162.50;5091395;28;39897;-78
2023/04/08 02:00:31;;;;;;;9.07;7.73;;;;;;;5.14;76.33;99170.75;5088902;28;41531;-77
2023/04/08 02:03:01;;;;;;;10.37;7.93;;;;;;;5.03;76.33;99158.88;5090928;28;42684;-78
2023/04/08 02:05:28;;;;;;;9.27;7.10;;;;;;;5.21;75.93;99175.72;5090482;28;42319;-77
2023/04/08 02:07:56;;;;;;;7.57;6.73;;;;;;;5.14;75.90;99161.13;5091072;28;40813;-77
2023/04/08 02:10:24;;;;;;;7.53;6.70;;;;;;;5.22;76.02;99169.56;5090773;28;42684;-77
2023/04/08 02:12:52;;;;;;;7.17;6.33;;;;;;;5.26;75.83;99176.44;5074278;28;42856;-77
2023/04/08 02:15:22;;;;;;;7.60;6.80;;;;;;;5.26;75.43;99173.81;5073347;28;41081;-77
2023/04/08 02:17:52;;;;;;;7.17;6.07;;;;;;;5.27;75.26;99177.28;5074013;28;39017;-77
2023/04/08 02:20:24;;;;;;;6.30;5.50;;;;;;;5.28;75.25;99179.84;5090847;28;40541;-78
2023/04/08 02:22:58;;;;;;;6.43;5.53;;;;;;;5.22;74.90;99169.56;5088851;28;42797;-78
2023/04/08 02:25:28;;;;;;;6.87;5.67;;;;;;;5.29;75.15;99184.22;5073953;28;41811;-77
2023/04/08 02:27:57;;;;;;;7.00;6.20;;;;;;;5.29;75.07;99183.34;5074459;28;39169;-78
2023/04/08 02:30:28;;;;;;;5.97;5.37;;;;;;;5.36;74.71;99187.44;5073521;28;40624;-78
2023/04/08 02:32:57;;;;;;;6.97;6.27;;;;;;;5.39;74.85;99190.84;5074365;28;43030;-78
2023/04/08 02:35:26;;;;;;;8.03;6.50;;;;;;;5.34;74.34;99179.63;5090386;28;43050;-77
2023/04/08 02:37:54;;;;;;;8.17;6.33;;;;;;;5.47;74.32;99200.19;5073699;28;38568;-77
2023/04/08 02:40:27;;;;;;;7.97;7.17;;;;;;;5.49;73.98;99201.00;5073557;28;41105;-77
2023/04/08 02:42:55;;;;;;;7.73;6.73;;;;;;;5.48;73.97;99196.66;5087894;28;42801;-78
2023/04/08 02:45:25;;;;;;;7.07;6.20;;;;;;;5.50;73.57;99205.34;5073037;28;42309;-78
2023/04/08 02:47:55;;;;;;;6.63;5.90;;;;;;;5.53;73.66;99210.50;5087518;28;40024;-77
2023/04/08 02:50:22;;;;;;;5.97;4.90;;;;;;;5.53;73.58;99205.22;5091266;28;41752;-77
2023/04/08 02:52:50;;;;;;;6.00;5.40;;;;;;;5.38;73.44;99186.50;5073213;28;41702;-77
2023/04/08 02:55:18;;;;;;;7.80;6.30;;;;;;;5.53;73.01;99211.34;5089981;28;42975;-77
2023/04/08 02:57:48;;;;;;;6.17;5.57;;;;;;;5.54;72.98;99214.84;5073706;28;40942;-77
2023/04/08 03:00:16;;;;;;;7.03;5.73;;;;;;;5.55;73.15;99219.19;5089978;28;40572;-77
2023/04/08 03:02:44;;;;;;;7.47;6.30;;;;;;;5.45;72.78;99199.38;5090443;28;41321;-77
2023/04/08 03:05:15;;;;;;;6.97;6.00;;;;;;;5.58;72.84;99226.91;5072993;28;42235;-77
2023/04/08 03:07:43;;;;;;;6.00;5.30;;;;;;;5.57;72.40;99223.44;5088473;28;40668;-77
2023/04/08 03:10:11;;;;;;;7.07;6.33;;;;;;;5.57;72.51;99223.44;5090066;28;41859;-77
2023/04/08 03:12:38;;;;;;;8.20;7.40;;;;;;;5.57;72.93;99219.94;5073489;28;43081;-77
2023/04/08 03:15:07;;;;;;;8.40;6.87;;;;;;;5.56;72.95;99227.00;5089236;28;42285;-77
2023/04/08 03:17:35;;;;;;;7.97;6.87;;;;;;;5.53;72.97;99215.75;5090462;28;41011;-77
2023/04/08 03:20:03;;;;;;;7.60;6.17;;;;;;;5.55;72.76;99219.19;5089522;28;41735;-77
2023/04/08 03:22:33;;;;;;;7.63;6.93;;;;;;;5.54;72.58;99215.69;5073352;28;41688;-77
2023/04/08 03:25:01;;;;;;;5.93;5.33;;;;;;;5.43;72.40;99204.72;5089664;28;43153;-77
2023/04/08 03:27:29;;;;;;;6.87;6.17;;;;;;;5.46;72.83;99203.72;5090407;28;39000;-76
2023/04/08 03:29:56;;;;;;;6.73;6.03;;;;;;;5.43;72.81;99212.59;5072925;28;40602;-77
2023/04/08 03:32:24;;;;;;;5.70;5.03;;;;;;;5.38;72.66;99212.75;5093365;28;41457;-78
2023/04/08 03:34:52;;;;;;;7.50;6.70;;;;;;;5.46;72.40;99224.75;5076368;28;41223;-77
2023/04/08 03:37:20;;;;;;;6.80;6.10;;;;;;;5.45;72.86;99225.66;5093444;28;39493;-77
2023/04/08 03:39:49;;;;;;;6.93;5.70;;;;;;;5.45;72.98;99223.03;5093532;28;41623;-77
2023/04/08 03:42:17;;;;;;;6.13;5.53;;;;;;;5.45;73.20;99223.03;5093230;28;43775;-77
2023/04/08 03:44:44;;;;;;;7.10;6.37;;;;;;;5.47;72.94;99226.47;5094145;28;43255;-77
2023/04/08 03:47:12;;;;;;;7.03;6.33;;;;;;;5.49;72.82;99229.88;5093245;28;40899;-77
2023/04/08 03:49:39;;;;;;;6.70;5.97;;;;;;;5.51;73.03;99228.06;5076236;28;40919;-78
2023/04/08 03:52:08;;;;;;;7.63;5.80;;;;;;;5.42;72.71;99213.50;5093842;28;43764;-77
2023/04/08 03:54:36;;;;;;;7.17;5.97;;;;;;;5.55;72.73;99234.94;5076307;28;41608;-77
2023/04/08 03:57:05;;;;;;;6.43;5.43;;;;;;;5.53;72.86;99223.63;5092664;28;38935;-77
2023/04/08 03:59:35;;;;;;;6.20;5.53;;;;;;;5.53;72.99;99216.59;5094064;28;41866;-78
2023/04/08 04:02:03;;;;;;;7.67;5.87;;;;;;;5.60;72.72;99233.84;5092397;28;42630;-78
2023/04/08 04:04:30;;;;;;;7.23;5.83;;;;;;;5.62;72.83;99236.41;5092970;28;43383;-77
2023/04/08 04:06:58;;;;;;;7.03;6.27;;;;;;;5.62;72.95;99236.41;5092874;28;38788;-77
2023/04/08 04:09:26;;;;;;;8.93;8.03;;;;;;;5.58;72.72;99235.66;5075804;28;40938;-77
2023/04/08 04:11:54;;;;;;;6.57;5.97;;;;;;;5.53;72.52;99239.38;5075986;28;42145;-78
2023/04/08 04:14:23;;;;;;;7.00;6.30;;;;;;;5.47;72.79;99247.47;5092172;28;42022;-77
2023/04/08 04:16:51;;;;;;;7.90;6.43;;;;;;;5.39;72.87;99239.88;5092450;28;40778;-77
2023/04/08 04:19:19;;;;;;;8.43;7.53;;;;;;;5.35;73.07;99244.38;5075794;28;40344;-77
2023/04/08 04:21:46;;;;;;;7.60;6.77;;;;;;;5.27;72.80;99235.91;5092465;28;44190;-77
2023/04/08 04:24:14;;;;;;;7.50;6.13;;;;;;;5.30;73.00;99240.22;5091858;28;41002;-77
2023/04/08 04:26:42;;;;;;;8.00;6.40;;;;;;;5.27;72.76;99241.16;5092459;28;40855;-77
2023/04/08 04:29:10;;;;;;;7.43;6.03;;;;;;;5.30;73.22;99246.31;5075711;28;42072;-78
2023/04/08 04:31:39;;;;;;;7.40;6.67;;;;;;;5.29;73.47;99233.25;5075200;28;42931;-78
2023/04/08 04:34:07;;;;;;;7.40;6.63;;;;;;;5.37;73.19;99253.06;5074915;28;42567;-77
2023/04/08 04:36:35;;;;;;;6.73;5.90;;;;;;;5.37;73.35;99239.06;5092228;28;40959;-77
2023/04/08 04:39:02;;;;;;;7.07;6.43;;;;;;;5.19;73.29;99205.59;5093502;28;42682;-77
2023/04/08 04:41:30;;;;;;;7.67;6.67;;;;;;;5.48;72.97;99250.03;5092038;28;42796;-76
2023/04/08 04:43:58;;;;;;;9.43;8.03;;;;;;;5.59;73.14;99257.53;5075350;28;42284;-77
2023/04/08 04:46:26;;;;;;;8.43;7.23;;;;;;;5.63;72.67;99257.38;5092049;28;40294;-77
2023/04/08 04:48:55;;;;;;;9.67;8.50;;;;;;;5.70;73.09;99248.34;5092306;28;41691;-77
2023/04/08 04:51:23;;;;;;;8.97;8.00;;;;;;;5.64;73.68;99231.97;5091747;28;41752;-77
2023/04/08 04:53:51;;;;;;;9.40;8.23;;;;;;;5.78;73.82;99243.69;5093445;28;42139;-78
2023/04/08 04:56:20;;;;;;;8.10;7.13;;;;;;;5.75;73.96;99238.53;5074893;28;40160;-77
2023/04/08 04:58:47;;;;;;;7.90;7.07;;;;;;;5.83;74.09;99240.03;5092891;28;41882;-77
2023/04/08 05:01:15;;;;;;;7.67;6.57;;;;;;;5.99;73.89;99255.19;5075000;28;41924;-77
2023/04/08 05:03:43;;;;;;;8.87;7.47;;;;;;;6.06;73.87;99261.06;5074918;28;41259;-77
2023/04/08 05:06:12;;;;;;;8.07;7.27;;;;;;;6.15;73.45;99267.78;5074808;28;39328;-77
2023/04/08 05:08:39;;;;;;;9.50;7.13;;;;;;;6.21;73.55;99257.00;5093089;28;41634;-77
2023/04/08 05:11:09;;;;;;;6.97;6.10;;;;;;;6.14;73.52;99232.72;5092727;28;43750;-77
2023/04/08 05:13:37;;;;;;;6.57;5.97;;;;;;;6.37;73.26;99266.88;5092937;28;42354;-78
2023/04/08 05:16:05;;;;;;;6.50;5.90;;;;;;;6.38;72.93;99259.84;5091615;28;40377;-77
2023/04/08 05:18:33;;;;;;;7.70;6.30;;;;;;;6.57;73.01;99271.34;5093013;28;41900;-77
2023/04/08 05:21:01;;;;;;;5.67;4.93;;;;;;;6.33;72.49;99219.72;5074198;28;41844;-77
2023/04/08 05:23:30;;;;;;;6.30;5.70;;;;;;;6.75;72.64;99270.63;5074509;28;41229;-77
2023/04/08 05:25:58;;;;;;;6.57;5.87;;;;;;;6.85;72.50;99281.63;5092568;28;41018;-77
2023/04/08 05:28:26;;;;;;;8.60;7.70;;;;;;;6.95;72.57;99282.13;5074596;28;40329;-77
2023/04/08 05:30:54;;;;;;;6.80;6.00;;;;;;;7.02;72.41;99275.69;5091121;28;43754;-77
2023/04/08 05:33:22;;;;;;;6.20;5.60;;;;;;;7.17;72.08;99290.88;5092656;28;42245;-77
2023/04/08 05:35:50;;;;;;;6.60;6.00;;;;;;;7.29;71.96;99277.19;5091071;28;39968;-77
2023/04/08 05:38:17;;;;;;;6.37;5.77;;;;;;;7.33;72.17;99268.19;5074189;28;40753;-78
2023/04/08 05:40:47;;;;;;;7.00;6.30;;;;;;;7.52;71.94;99282.31;5090564;28;41593;-77
2023/04/08 05:43:15;;;;;;;7.17;6.47;;;;;;;7.69;71.55;99292.09;5091315;28;41151;-77
2023/04/08 05:45:42;;;;;;;7.73;6.93;;;;;;;7.81;71.64;99296.84;5073866;28;39159;-77
2023/04/08 05:48:10;;;;;;;8.33;7.33;;;;;;;8.02;71.82;99295.03;5090941;28;41201;-78
2023/04/08 05:50:38;;;;;;;8.03;7.07;;;;;;;8.18;71.32;99289.91;5091100;28;42686;-77
2023/04/08 05:53:06;;;;;;;8.33;7.43;;;;;;;8.36;71.51;99299.66;5073390;28;40573;-77
2023/04/08 05:55:34;;;;;;;7.47;6.73;;;;;;;8.50;71.18;99297.25;5073708;28;39004;-77
2023/04/08 05:58:04;;;;;;;8.70;7.00;;;;;;;8.63;70.84;99305.44;5073851;28;40622;-77
2023/04/08 06:00:32;;;;;;;9.30;7.97;;;;;;;8.72;70.88;99309.41;5073440;28;41742;-77
2023/04/08 06:03:00;;;;;;;9.70;7.83;;;;;;;8.82;70.35;99306.25;5092005;28;43277;-77
2023/04/08 06:05:28;;;;;;;8.40;7.60;;;;;;;8.91;70.62;99312.88;5090844;28;39998;-78
2023/04/08 06:07:55;;;;;;;8.70;7.80;;;;;;;8.98;70.00;99314.28;5090781;28;41713;-78
2023/04/08 06:10:23;;;;;;;8.23;7.40;;;;;;;8.94;69.80;99292.44;5090533;28;42068;-78
2023/04/08 06:12:50;;;;;;;7.87;7.10;;;;;;;9.14;69.52;99320.56;5073858;28;41058;-77
2023/04/08 06:15:20;;;;;;;7.97;7.17;;;;;;;9.21;69.37;99321.09;5073377;28;40729;-77
2023/04/08 06:17:48;;;;;;;7.40;6.60;;;;;;;9.27;69.27;99326.09;5073641;28;41146;-78
2023/04/08 06:20:15;;;;;;;8.07;7.27;;;;;;;9.35;69.24;99329.19;5090431;28;42803;-78
2023/04/08 06:22:43;;;;;;;6.93;6.23;;;;;;;9.41;69.10;99334.16;5090452;28;41014;-78
2023/04/08 06:25:11;;;;;;;7.67;6.87;;;;;;;9.47;68.78;99325.06;5090481;28;40393;-75
2023/04/08 06:27:39;;;;;;;7.30;6.60;;;;;;;9.52;68.68;99331.81;5090770;28;41754;-75
2023/04/08 06:30:08;;;;;;;7.40;6.10;;;;;;;9.58;68.09;99334.19;5090568;28;42810;-74
2023/04/08 06:32:38;;;;;;;7.27;6.57;;;;;;;9.61;67.71;99341.97;5091862;28;42089;-76
2023/04/08 06:35:07;;;;;;;7.63;6.83;;;;;;;9.63;66.35;99347.19;5090278;28;40005;-76
2023/04/08 06:37:37;;;;;;;7.87;7.07;;;;;;;9.64;65.01;99356.81;5091472;28;41759;-76
2023/04/08 06:40:06;;;;;;;8.90;7.70;;;;;;;9.64;63.71;99362.94;5073196;28;42077;-76
2023/04/08 06:42:34;;;;;;;8.77;7.53;;;;;;;9.61;62.45;99384.28;5091793;28;42262;-77
2023/04/08 06:45:26;;;;;;;7.83;6.33;;;;;;;9.59;61.70;99378.19;5087932;28;40802;-76
2023/04/08 06:47:55;;;;;;;7.27;6.57;;;;;;;9.61;60.72;99389.56;5073539;28;40610;-77
2023/04/08 06:50:23;;;;;;;8.50;7.17;;;;;;;9.62;60.80;99396.56;5090109;28;42540;-77
2023/04/08 06:52:51;;;;;;;7.70;6.93;;;;;;;9.64;60.15;99389.38;5073787;28;41314;-76
2023/04/08 06:55:19;;;;;;;6.87;6.17;;;;;;;9.72;60.75;99387.22;5090605;28;40284;-76
2023/04/08 06:57:47;;;;;;;9.33;6.27;;;;;;;9.83;61.21;99388.47;5091792;28;42757;-76
2023/04/08 07:00:15;;;;;;;8.17;6.93;;;;;;;9.87;61.04;99396.19;5073227;28;41837;-76
2023/04/08 07:02:43;;;;;;;8.03;6.60;;;;;;;9.76;59.54;99377.34;5090285;28;43231;-75
2023/04/08 07:05:12;;;;;;;7.50;6.70;;;;;;;9.94;59.79;99402.00;5073201;28;40115;-76
2023/04/08 07:07:40;;;;;;;7.10;6.40;;;;;;;10.09;59.87;99398.56;5076943;28;40403;-76
2023/04/08 07:10:09;;;;;;;6.50;5.83;;;;;;;10.23;60.33;99397.88;5093607;28;43709;-76
2023/04/08 07:12:37;;;;;;;8.30;6.57;;;;;;;10.36;59.36;99406.91;5093886;28;42355;-76
2023/04/08 07:15:05;;;;;;;6.60;5.90;;;;;;;10.53;59.07;99408.63;5093320;28;40195;-76
2023/04/08 07:17:33;;;;;;;5.83;5.33;;;;;;;10.65;58.70;99411.47;5094908;28;41888;-77
2023/04/08 07:20:01;;;;;;;6.20;5.30;;;;;;;10.82;57.94;99415.88;5093374;28;42734;-76
2023/04/08 07:22:30;;;;;;;6.17;5.57;;;;;;;11.08;57.48;99417.09;5093468;28;41241;-76
2023/04/08 07:24:58;;;;;;;6.00;5.40;;;;;;;11.24;57.27;99430.34;5094449;28;41019;-76
2023/04/08 07:27:25;;;;;;;5.80;5.27;;;;;;;11.20;54.56;99434.97;5093365;28;40968;-76
2023/04/08 07:29:54;;;;;;;6.93;5.40;;;;;;;11.03;54.72;99422.63;5093397;28;43711;-78
2023/04/08 07:32:22;;;;;;;7.47;6.00;;;;;;;11.01;54.95;99424.50;5093629;28;43181;-77
2023/04/08 07:34:50;;;;;;;5.83;5.03;;;;;;;11.07;54.67;99440.09;5093546;28;38929;-77
2023/04/08 07:37:18;;;;;;;6.33;5.47;;;;;;;11.08;54.42;99449.75;5094388;28;41906;-77
2023/04/08 07:39:48;;;;;;;7.67;5.83;;;;;;;10.98;54.04;99451.19;5076245;28;41883;-77
2023/04/08 07:42:16;;;;;;;6.50;5.77;;;;;;;10.91;53.67;99455.09;5094399;28;42204;-77
2023/04/08 07:44:43;;;;;;;6.70;5.50;;;;;;;10.77;53.87;99452.34;5076219;28;38882;-78
2023/04/08 07:47:11;;;;;;;6.00;5.13;;;;;;;10.76;54.31;99462.09;5094299;28;42074;-77
2023/04/08 07:49:39;;;;;;;6.50;5.00;;;;;;;10.59;53.19;99474.53;5093167;28;42796;-77
2023/04/08 07:52:07;;;;;;;5.63;4.97;;;;;;;10.47;53.85;99476.03;5092536;28;41601;-77
2023/04/08 07:54:35;;;;;;;7.03;4.97;;;;;;;10.33;54.19;99463.50;5075932;28;39971;-77
2023/04/08 07:57:05;;;;;;;6.37;4.97;;;;;;;10.19;54.51;99450.13;5092812;28;42558;-77
2023/04/08 07:59:33;;;;;;;7.13;5.00;;;;;;;10.30;54.86;99462.78;5092937;28;41719;-78
2023/04/08 08:02:00;;;;;;;5.23;4.70;;;;;;;10.32;55.16;99458.28;5092724;28;40869;-77
2023/04/08 08:04:28;;;;;;;6.10;4.93;;;;;;;10.25;55.42;99454.25;5093232;28;40265;-77
2023/04/08 08:06:55;;;;;;;5.50;4.53;;;;;;;10.32;55.62;99455.63;5092848;28;40790;-77
2023/04/08 08:09:23;;;;;;;6.17;5.53;;;;;;;10.38;55.68;99461.50;5075602;28;42343;-77
2023/04/08 08:11:51;;;;;;;5.87;4.53;;;;;;;10.44;56.10;99455.84;5075585;28;42518;-77
2023/04/08 08:14:21;;;;;;;5.23;4.60;;;;;;;10.56;56.09;99453.50;5075444;28;38981;-79
2023/04/08 08:16:48;;;;;;;7.10;5.40;;;;;;;10.65;56.14;99460.94;5075014;28;40725;-77
2023/04/08 08:19:16;;;;;;;7.03;5.17;;;;;;;10.79;55.92;99461.06;5092766;28;42663;-77
2023/04/08 08:21:44;;;;;;;7.33;5.83;;;;;;;10.88;54.85;99476.47;5092235;28;41198;-77
2023/04/08 08:24:12;;;;;;;6.60;4.87;;;;;;;10.99;55.15;99473.25;5093700;28;40005;-77
2023/04/08 08:26:40;;;;;;;6.40;4.87;;;;;;;11.06;54.97;99475.47;5092497;28;42428;-76
2023/04/08 08:29:08;;;;;;;7.10;4.97;;;;;;;11.12;54.84;99475.16;5075451;28;43298;-77
2023/04/08 08:31:37;;;;;;;6.33;4.83;;;;;;;11.21;55.51;99475.59;5093729;28;43388;-77
2023/04/08 08:34:05;;;;;;;5.90;4.80;;;;;;;11.31;55.31;99474.13;5075826;28;40012;-77
2023/04/08 08:36:32;;;;;;;6.03;5.43;;;;;;;11.32;54.69;99478.50;5092516;28;41697;-77
2023/04/08 08:39:00;;;;;;;6.73;4.90;;;;;;;11.37;54.49;99489.72;5075167;28;42783;-77
2023/04/08 08:41:33;;;;;;;7.50;5.10;;;;;;;11.32;54.62;99481.16;5093139;28;42479;-77
2023/04/08 08:44:03;;;;;;;6.00;5.30;;;;;;;11.28;54.23;99487.56;5089416;28;41555;-77
2023/04/08 08:46:31;;;;;;;6.13;5.50;;;;;;;11.34;54.45;99495.19;5092379;28;41908;-77
2023/04/08 08:49:00;;;;;;;5.77;4.90;;;;;;;11.40;54.62;99505.44;5074903;28;41761;-77
2023/04/08 08:51:31;;;;;;;5.60;4.67;;;;;;;11.27;53.86;99501.75;5075042;28;41335;-77
2023/04/08 08:54:02;;;;;;;6.87;5.20;;;;;;;11.39;54.10;99509.03;5075188;28;39391;-77
2023/04/08 08:56:30;;;;;;;6.77;5.23;;;;;;;11.37;53.48;99513.59;5092989;28;41984;-77
2023/04/08 08:58:58;;;;;;;5.07;4.57;;;;;;;11.23;53.71;99489.63;5092384;28;42032;-78
2023/04/08 09:01:33;;;;;;;6.33;4.73;;;;;;;11.60;54.20;99507.84;5074930;28;42849;-77
2023/04/08 09:04:11;;;;;;;6.60;4.60;;;;;;;11.97;53.91;99508.44;5075576;28;40398;-77
2023/04/08 09:06:39;;;;;;;5.20;4.57;;;;;;;12.24;53.59;99512.97;5091154;28;41664;-77
2023/04/08 09:09:09;;;;;;;5.30;4.80;;;;;;;12.71;52.59;99524.38;5074827;28;41827;-76
2023/04/08 09:11:38;;;;;;;5.60;5.00;;;;;;;13.16;51.93;99521.59;5091584;28;41402;-77
2023/04/08 09:14:06;;;;;;;6.03;4.43;;;;;;;13.42;50.43;99529.72;5074842;28;39204;-77
2023/04/08 09:16:34;;;;;;;4.47;4.07;;;;;;;13.99;50.08;99533.94;5074258;28;40690;-77
2023/04/08 09:19:12;;;;;;;5.70;4.10;;;;;;;14.76;49.28;99529.69;5074803;28;41838;-78
2023/04/08 09:21:41;;;;;;;4.57;4.17;;;;;;;15.65;47.32;99540.31;5075613;28;20241;-78
2023/04/08 09:24:09;;;;;;;4.50;3.60;;;;;;;16.11;45.17;99554.66;5074757;28;40077;-78
2023/04/08 09:26:38;;;;;;;4.00;3.60;;;;;;;16.22;44.72;99558.34;5091593;28;41823;-78
2023/04/08 09:29:07;;;;;;;3.80;3.50;;;;;;;16.30;44.21;99569.34;5090495;28;41845;-78
2023/04/08 09:31:40;;;;;;;3.60;3.30;;;;;;;16.31;43.18;99577.25;5090895;28;43139;-78
2023/04/08 09:34:14;;;;;;;3.37;3.07;;;;;;;16.17;44.26;99569.41;5091402;28;39940;-76
2023/04/08 09:36:41;;;;;;;3.50;3.20;;;;;;;16.23;44.09;99568.06;5091892;28;42645;-77
2023/04/08 09:39:09;;;;;;;4.60;3.40;;;;;;;16.38;43.61;99569.63;5074306;28;41845;-77
2023/04/08 09:41:39;;;;;;;3.17;2.90;;;;;;;16.21;44.60;99565.53;5092323;28;42521;-76
2023/04/08 09:44:08;;;;;;;4.20;3.80;;;;;;;16.37;44.56;99565.22;5091464;28;38752;-77
2023/04/08 09:46:41;;;;;;;3.60;3.30;;;;;;;16.19;43.09;99577.31;5091267;28;40974;-77
2023/04/08 09:49:13;;;;;;;3.47;2.97;;;;;;;15.72;44.15;99568.25;5074866;28;41614;-77
2023/04/08 09:51:47;;;;;;;3.97;3.30;;;;;;;15.88;44.65;99544.81;5074770;28;41463;-77
2023/04/08 09:54:19;;;;;;;3.70;3.20;;;;;;;15.88;43.68;99576.03;5089441;28;39627;-77
2023/04/08 09:56:52;;;;;;;3.67;3.37;;;;;;;15.71;44.68;99564.75;5074103;28;41114;-77
2023/04/08 09:59:23;;;;;;;5.07;3.87;;;;;;;15.55;44.63;99540.13;5074650;28;43093;-77
2023/04/08 10:01:54;;;;;;;4.03;3.60;;;;;;;15.91;45.36;99555.28;5092509;28;42025;-77
2023/04/08 10:04:27;;;;;;;3.73;3.43;;;;;;;16.42;44.50;99563.09;5074683;28;38950;-77
2023/04/08 10:06:58;;;;;;;3.93;3.53;;;;;;;17.53;42.42;99566.00;5091118;28;41680;-80
2023/04/08 10:09:28;;;;;;;4.87;3.70;;;;;;;17.51;41.77;99580.47;5088055;28;43916;-78
2023/04/08 10:11:56;;;;;;;3.80;3.50;;;;;;;17.20;42.16;99584.69;5074288;28;41525;-78
2023/04/08 10:14:27;;;;;;;4.27;3.87;;;;;;;16.80;42.12;99579.78;5091422;28;39136;-78
2023/04/08 10:17:26;;;;;;;3.63;3.33;;;;;;;16.73;42.83;99575.00;5074689;28;41761;-77
2023/04/08 10:19:57;;;;;;;3.80;3.40;;;;;;;16.96;44.12;99562.53;5090910;28;42709;-78
2023/04/08 10:22:48;;;;;;;3.93;3.60;;;;;;;16.87;43.04;99572.13;5091199;28;42779;-77
2023/04/08 10:25:30;;;;;;;3.70;3.40;;;;;;;16.59;43.21;99559.13;5073817;28;40061;-78
2023/04/08 10:27:58;;;;;;;4.30;3.90;;;;;;;16.16;43.33;99549.84;5091111;28;41830;-78
2023/04/08 10:30:43;;;;;;;3.90;3.60;;;;;;;15.93;45.40;99529.31;5090124;28;42906;-78
2023/04/08 10:33:13;;;;;;;4.07;3.67;;;;;;;15.73;45.20;99529.91;5073882;28;41157;-78
2023/04/08 10:35:47;;;;;;;3.60;3.30;;;;;;;15.48;45.30;99524.59;5090639;28;40962;-78
2023/04/08 10:38:16;;;;;;;4.03;3.63;;;;;;;15.34;46.28;99528.25;5090634;28;42140;-78
2023/04/08 10:40:45;;;;;;;3.60;3.30;;;;;;;15.08;45.96;99532.81;5076413;28;41781;-78
2023/04/08 10:43:15;;;;;;;3.70;3.40;;;;;;;14.84;46.57;99537.16;5077435;28;41182;-78
2023/04/08 10:45:44;;;;;;;3.60;3.30;;;;;;;14.85;47.32;99523.72;5093872;28;39926;-78
2023/04/08 10:48:18;;;;;;;3.87;3.37;;;;;;;15.12;47.38;99526.28;5077216;28;41893;-78
2023/04/08 10:50:53;;;;;;;4.80;3.90;;;;;;;15.46;47.19;99524.72;5092070;28;44194;-78
2023/04/08 10:53:26;;;;;;;4.50;3.43;;;;;;;15.62;46.46;99521.84;5091246;28;42472;-78
2023/04/08 10:55:54;;;;;;;3.33;3.03;;;;;;;15.87;46.77;99539.59;5092571;28;40027;-78
2023/04/08 10:58:21;;;;;;;3.87;3.53;;;;;;;15.83;45.03;99544.28;5077049;28;40701;-78
2023/04/08 11:00:49;;;;;;;3.77;3.30;;;;;;;15.75;45.32;99542.19;5076764;28;42480;-78
2023/04/08 11:03:17;;;;;;;4.10;3.70;;;;;;;15.79;45.67;99545.50;5094104;28;42214;-77
2023/04/08 11:05:45;;;;;;;3.57;3.27;;;;;;;15.78;46.25;99533.13;5093884;28;39670;-77
2023/04/08 11:08:14;;;;;;;3.63;3.33;;;;;;;15.79;45.99;99533.00;5093858;28;41984;-78
2023/04/08 11:10:43;;;;;;;4.20;3.37;;;;;;;15.88;45.98;99546.63;5094819;28;43036;-78
2023/04/08 11:13:12;;;;;;;3.57;3.27;;;;;;;15.75;45.56;99527.97;5076505;28;41297;-78
2023/04/08 11:15:40;;;;;;;3.23;3.00;;;;;;;15.90;45.48;99545.56;5093290;28;41091;-78
2023/04/08 11:18:08;;;;;;;3.87;3.53;;;;;;;16.07;46.22;99542.50;5093606;28;41972;-78
2023/04/08 11:20:37;;;;;;;3.70;3.40;;;;;;;16.07;44.58;99547.81;5093639;28;43684;-79
2023/04/08 11:23:05;;;;;;;4.37;3.97;;;;;;;16.00;44.59;99540.41;5093795;28;43195;-78
2023/04/08 11:25:34;;;;;;;3.33;3.03;;;;;;;16.03;44.56;99551.72;5076711;28;38873;-78
2023/04/08 11:28:02;;;;;;;3.80;3.50;;;;;;;15.99;45.37;99544.03;5076811;28;40755;-78
2023/04/08 11:30:30;;;;;;;3.17;2.93;;;;;;;16.15;45.73;99534.78;5076833;28;42790;-78
2023/04/08 11:32:58;;;;;;;4.60;3.57;;;;;;;16.35;45.77;99527.06;5076677;28;41200;-79
2023/04/08 11:35:29;;;;;;;3.27;2.97;;;;;;;16.64;45.12;99541.78;5093480;28;38979;-78
2023/04/08 11:37:57;;;;;;;3.83;3.43;;;;;;;16.74;45.10;99516.03;5076606;28;41601;-78
2023/04/08 11:40:26;;;;;;;3.60;3.30;;;;;;;17.08;44.84;99530.31;5094276;28;42793;-78
2023/04/08 11:42:55;;;;;;;4.20;3.80;;;;;;;17.14;43.63;99523.63;5093731;28;43026;-77
2023/04/08 11:45:24;;;;;;;3.50;3.20;;;;;;;17.30;43.19;99544.69;5075848;28;39250;-78
2023/04/08 11:47:52;;;;;;;3.80;3.50;;;;;;;17.42;43.67;99541.91;5093193;28;41772;-77